Pulga, California
Current Conditions -  °F | °C
As of 12:53 PM on Tuesday 21 Oct 2014 (Local Time) from KOVE Reporting Station
Clear Clear  
Wind Chill: 67°   Ceiling: Unl
Heat Index: 67°   Visibility: 10mi
Dew Point: 43°   Wind: 7mph
Humidity: 42%   Direction: 300°WNW
Pressure: 30.08"   Gusts: NA
Location:  39.5324°N, 121.648°W
Report Text: KOVE 211953Z AUTO 30006KT 10SM CLR 19/06 A3008 RMK AO2 SLP186 T01940061 $
Loading
Personal Weather Stations






























Interactive Weather Map
Tropical Storm Tracking
New forecast layout! Learn more

10-Day Weather Forecast

Advertisements
Track Severe Weather on mobile